• Join FlightAware (Why Join?)
  • Login
  • US Flag 
12:35AM EDT


 

Airport Tracker/Info


-or-


 

Live Flight TrackerFlight Track Log ✈ AMX202 ✈ 25-May-2013 ✈ MMMX / MEX - MMTC / TRC

Flight Track Log - Related Links

Times and Time Zones

All times are in EDT time to prevent confusion due to time zone crossing. See the AMX202 flight status page for this flight to view local times or setup timezone preferences in your user account.

Time Position Orientation Groundspeed Altitude Reporting Facility
EDT Latitude Longitude Course Direction KTS MPH feet Rate Location/Type
05:43PM 19.3410 -99.0190 292° West 358 412 18,800  Level FlightAware
05:44PM 19.3790 -99.0820 303° West 363 418 20,700 2,640 Climbing FlightAware
05:45PM 19.4210 -99.1460 305° West 365 420 22,600 2,160 Climbing FlightAware
05:45PM 19.4460 -99.2150 291° West 384 442 23,800 1,860 Climbing FlightAware
05:46PM 19.4700 -99.2870 289° West 395 455 25,100 1,920 Climbing FlightAware
05:47PM 19.4980 -99.3670 290° West 403 464 26,500 2,400 Climbing FlightAware
05:47PM 19.5240 -99.4440 290° West 385 443 28,600 2,220 Climbing FlightAware
05:48PM 19.5510 -99.5210 290° West 396 456 29,700 1,020 Climbing FlightAware
05:49PM 19.5770 -99.5980 290° West 422 486 30,100 1,020 Climbing FlightAware
05:50PM 19.6070 -99.6840 290° West 429 494 31,200 1,560 Climbing FlightAware
05:50PM 19.6350 -99.7630 291° West 434 499 32,300 1,380 Climbing FlightAware
05:51PM 19.6810 -99.8400 302° West 453 521 33,100 1,200 Climbing FlightAware
05:52PM 19.7390 -99.9120 311° West 460 529 34,000 1,440 Climbing FlightAware
05:52PM 19.7990 -99.9870 310° West 455 524 35,200 1,800 Climbing FlightAware
05:53PM 19.8540 -100.0550 311° West 444 511 36,600 1,920 Climbing FlightAware
05:54PM 19.9120 -100.1260 311° West 436 502 37,900 1,500 Climbing FlightAware
05:54PM 19.9650 -100.1920 311° West 432 497 38,800 1,200 Climbing FlightAware
05:55PM 20.0160 -100.2550 311° West 430 495 39,500 720 Climbing FlightAware
05:56PM 20.0810 -100.3360 311° West 428 493 40,000 240 Climbing FlightAware
05:57PM 20.1490 -100.4190 311° West 430 495 40,000  Level FlightAware
05:57PM 20.1980 -100.4810 310° West 431 496 40,000  Level FlightAware
05:58PM 20.2570 -100.5540 311° West 432 497 40,000  Level FlightAware
05:59PM 20.3090 -100.6190 310° West 434 499 40,000  Level FlightAware
06:00PM 20.3620 -100.6840 311° West 435 501 40,000  Level FlightAware
06:01PM 20.4610 -100.8080 310° West 437 503 40,000  Level FlightAware
06:02PM 20.5140 -100.8740 311° West 438 504 40,000  Level FlightAware
06:02PM 20.5730 -100.9480 310° West 440 506 40,000  Level FlightAware
06:03PM 20.6280 -101.0180 310° West 439 505 40,000  Level FlightAware
06:04PM 20.6800 -101.0820 311° West 432 497 40,000  Level FlightAware
06:04PM 20.7370 -101.1540 310° West 426 490 40,000  Level FlightAware
06:05PM 20.8050 -101.2400 310° West 425 489 40,000  Level FlightAware
06:06PM 20.8610 -101.3100 311° West 425 489 40,000  Level FlightAware
06:07PM 20.9120 -101.3740 310° West 422 486 40,000  Level FlightAware
06:07PM 20.9640 -101.4410 310° West 418 481 40,000  Level FlightAware
06:08PM 21.0200 -101.5090 311° West 424 488 40,000  Level FlightAware
06:09PM 21.0740 -101.5720 313° West 430 495 40,000  Level FlightAware
06:09PM 21.1280 -101.6350 313° West 429 494 40,000  Level FlightAware
06:11PM 21.1720 -101.6860 313° West 428 493 40,000  Level FlightAware
06:11PM 21.2800 -101.8130 312° West 434 499 40,000  Level FlightAware
06:12PM 21.3390 -101.8810 313° West 434 499 40,000  Level FlightAware
06:13PM 21.3880 -101.9380 313° West 429 494 40,000  Level FlightAware
06:13PM 21.4530 -102.0150 312° West 429 494 40,000  Level FlightAware
06:14PM 21.5060 -102.0780 312° West 428 493 40,000  Level FlightAware
06:15PM 21.5640 -102.1450 313° West 426 490 40,000  Level FlightAware
06:15PM 21.6140 -102.1760 330° Northwest 451 519 40,000  Level FlightAware
06:15PM 21.6400 -102.1790 354° North 462 532 40,000  Level FlightAware
06:16PM 21.7070 -102.1670 North 475 547 40,000  Level FlightAware
06:17PM 21.7930 -102.1470 12° North 473 544 40,000  Level FlightAware
06:17PM 21.8820 -102.1270 12° North 473 544 40,000  Level FlightAware
06:18PM 21.9770 -102.1050 12° North 470 541 40,000  Level FlightAware
06:19PM 22.0520 -102.0880 12° North 467 537 40,000  Level FlightAware
06:20PM 22.1530 -102.0680 10° North 467 537 40,000  Level FlightAware
06:20PM 22.2390 -102.0520 10° North 470 541 40,000  Level FlightAware
06:21PM 22.3320 -102.0420 North 465 535 40,000  Level FlightAware
06:21PM 22.3960 -102.0460 357° North 458 527 40,000  Level FlightAware
06:22PM 22.4660 -102.0540 354° North 458 527 40,000  Level FlightAware
06:23PM 22.5740 -102.0660 354° North 458 527 40,000  Level FlightAware
06:24PM 22.6380 -102.0730 354° North 458 527 40,000  Level FlightAware
06:24PM 22.7240 -102.0830 354° North 458 527 40,000  Level FlightAware
06:26PM 22.9460 -102.1960 335° Northwest 431 496 40,000  Level FlightAware
06:27PM 23.0070 -102.2530 319° Northwest 430 495 40,000  Level FlightAware
06:27PM 23.0540 -102.2970 319° Northwest 430 495 40,000  Level FlightAware
06:28PM 23.1010 -102.3420 319° Northwest 430 495 40,000  Level FlightAware
06:29PM 23.1600 -102.3980 319° Northwest 430 495 40,000  Level FlightAware
06:29PM 23.2090 -102.4430 320° Northwest 430 495 40,000  Level FlightAware
06:30PM 23.2650 -102.4970 318° Northwest 430 495 40,000  Level FlightAware
06:31PM 23.3260 -102.5540 319° Northwest 430 495 40,000  Level FlightAware
06:32PM 23.3730 -102.5990 319° Northwest 430 495 40,000  Level FlightAware
06:32PM 23.4350 -102.6570 319° Northwest 430 495 40,000  Level FlightAware
06:33PM 23.4800 -102.7010 318° Northwest 430 495 40,000  Level FlightAware
06:34PM 23.5440 -102.7610 319° Northwest 430 495 40,000  Level FlightAware
06:34PM 23.5900 -102.8050 319° Northwest 430 495 40,000  Level FlightAware
06:35PM 23.6680 -102.8790 319° Northwest 430 495 40,000  Level FlightAware
06:36PM 23.7140 -102.9220 319° Northwest 430 495 40,000  Level FlightAware
06:39PM 23.9517 -102.9838 347° North  Level Estimated
06:40PM 24.0468 -103.0086 347° North  Level Estimated
06:41PM 24.1418 -103.0334 347° North  Level Estimated
06:42PM 24.2369 -103.0583 347° North  Level Estimated
06:43PM 24.3320 -103.0832 347° North  Level Estimated
06:44PM 24.4270 -103.1081 347° North  Level Estimated
06:45PM 24.5221 -103.1331 347° North  Level Estimated
06:46PM 24.6171 -103.1581 347° North  Level Estimated
06:47PM 24.7122 -103.1832 347° North  Level Estimated
06:48PM 24.8072 -103.2082 347° North  Level Estimated
06:49PM 24.9023 -103.2334 347° North  Level Estimated
06:50PM 24.9973 -103.2585 347° North  Level Estimated
06:51PM 25.0923 -103.2837 346° North  Level Estimated
06:52PM 25.1873 -103.3090 346° North  Level Estimated
06:53PM 25.2824 -103.3343 346° North  Level Estimated
06:54PM 25.3774 -103.3596 346° North  Level Estimated
06:55PM 25.4724 -103.3849 346° North  Level Estimated
06:56PM 25.5674 -103.4103 346° North  Level Estimated
06:57PM 25.5683 -103.4106 347° North  Level Estimated
06:58PM 25.5683 -103.4106 234° Southwest  Level Estimated
06:59PM 25.5683 -103.4106 234° Southwest  Level Estimated
07:00PM 25.5683 -103.4106 234° Southwest  Level Estimated
07:01PM 25.5683 -103.4106 234° Southwest  Level Estimated